sensor_id;sensor_type;location;lat;lon;timestamp;P1;durP1;ratioP1;P2;durP2;ratioP2
44704;SDS011;30431;48.520;9.046;2023-04-28T00:00:50;6.53;;;3.55;;
44704;SDS011;30431;48.520;9.046;2023-04-28T00:03:17;5.10;;;3.40;;
44704;SDS011;30431;48.520;9.046;2023-04-28T00:05:45;8.23;;;3.17;;
44704;SDS011;30431;48.520;9.046;2023-04-28T00:08:13;5.43;;;3.38;;
44704;SDS011;30431;48.520;9.046;2023-04-28T00:10:42;4.45;;;3.03;;
44704;SDS011;30431;48.520;9.046;2023-04-28T00:13:09;5.70;;;3.33;;
44704;SDS011;30431;48.520;9.046;2023-04-28T00:18:04;4.85;;;2.85;;
44704;SDS011;30431;48.520;9.046;2023-04-28T00:20:31;7.85;;;3.75;;
44704;SDS011;30431;48.520;9.046;2023-04-28T00:23:00;6.78;;;3.97;;
44704;SDS011;30431;48.520;9.046;2023-04-28T00:25:29;5.88;;;3.50;;
44704;SDS011;30431;48.520;9.046;2023-04-28T00:27:59;8.57;;;3.50;;
44704;SDS011;30431;48.520;9.046;2023-04-28T00:30:28;6.13;;;4.00;;
44704;SDS011;30431;48.520;9.046;2023-04-28T00:32:58;13.25;;;4.63;;
44704;SDS011;30431;48.520;9.046;2023-04-28T00:35:25;7.57;;;4.85;;
44704;SDS011;30431;48.520;9.046;2023-04-28T00:37:55;8.57;;;4.07;;
44704;SDS011;30431;48.520;9.046;2023-04-28T00:40:22;7.25;;;4.30;;
44704;SDS011;30431;48.520;9.046;2023-04-28T00:42:51;6.90;;;3.90;;
44704;SDS011;30431;48.520;9.046;2023-04-28T00:45:18;6.65;;;4.05;;
44704;SDS011;30431;48.520;9.046;2023-04-28T00:47:46;8.10;;;4.30;;
44704;SDS011;30431;48.520;9.046;2023-04-28T00:50:13;8.10;;;4.00;;
44704;SDS011;30431;48.520;9.046;2023-04-28T00:52:41;7.35;;;4.40;;
44704;SDS011;30431;48.520;9.046;2023-04-28T01:00:03;10.10;;;4.38;;
44704;SDS011;30431;48.520;9.046;2023-04-28T01:02:35;6.25;;;4.45;;
44704;SDS011;30431;48.520;9.046;2023-04-28T01:05:03;7.18;;;4.45;;
44704;SDS011;30431;48.520;9.046;2023-04-28T01:07:33;6.38;;;4.47;;
44704;SDS011;30431;48.520;9.046;2023-04-28T01:10:03;6.82;;;4.30;;
44704;SDS011;30431;48.520;9.046;2023-04-28T01:12:34;12.60;;;4.95;;
44704;SDS011;30431;48.520;9.046;2023-04-28T01:15:03;7.20;;;4.55;;
44704;SDS011;30431;48.520;9.046;2023-04-28T01:17:30;6.60;;;4.20;;
44704;SDS011;30431;48.520;9.046;2023-04-28T01:20:00;9.45;;;4.97;;
44704;SDS011;30431;48.520;9.046;2023-04-28T01:22:30;6.10;;;4.22;;
44704;SDS011;30431;48.520;9.046;2023-04-28T01:27:25;6.45;;;4.30;;
44704;SDS011;30431;48.520;9.046;2023-04-28T01:32:20;9.43;;;4.32;;
44704;SDS011;30431;48.520;9.046;2023-04-28T01:34:49;8.23;;;4.40;;
44704;SDS011;30431;48.520;9.046;2023-04-28T01:37:16;7.40;;;4.35;;
44704;SDS011;30431;48.520;9.046;2023-04-28T01:39:46;8.80;;;4.80;;
44704;SDS011;30431;48.520;9.046;2023-04-28T01:42:13;7.47;;;4.32;;
44704;SDS011;30431;48.520;9.046;2023-04-28T01:44:45;7.25;;;4.65;;
44704;SDS011;30431;48.520;9.046;2023-04-28T01:47:13;9.38;;;4.70;;
44704;SDS011;30431;48.520;9.046;2023-04-28T01:49:40;7.35;;;4.53;;
44704;SDS011;30431;48.520;9.046;2023-04-28T01:52:07;7.07;;;5.00;;
44704;SDS011;30431;48.520;9.046;2023-04-28T01:54:49;7.97;;;4.30;;
44704;SDS011;30431;48.520;9.046;2023-04-28T01:57:38;7.85;;;4.65;;
44704;SDS011;30431;48.520;9.046;2023-04-28T02:00:05;9.90;;;5.05;;
44704;SDS011;30431;48.520;9.046;2023-04-28T02:02:36;6.90;;;4.65;;
44704;SDS011;30431;48.520;9.046;2023-04-28T02:05:03;7.28;;;4.32;;
44704;SDS011;30431;48.520;9.046;2023-04-28T02:07:30;6.68;;;4.30;;
44704;SDS011;30431;48.520;9.046;2023-04-28T02:09:59;7.57;;;4.75;;
44704;SDS011;30431;48.520;9.046;2023-04-28T02:12:28;8.95;;;5.10;;
44704;SDS011;30431;48.520;9.046;2023-04-28T02:14:57;7.28;;;4.82;;
44704;SDS011;30431;48.520;9.046;2023-04-28T02:17:25;9.30;;;4.80;;
44704;SDS011;30431;48.520;9.046;2023-04-28T02:19:58;6.68;;;4.40;;
44704;SDS011;30431;48.520;9.046;2023-04-28T02:22:25;9.75;;;4.93;;
44704;SDS011;30431;48.520;9.046;2023-04-28T02:24:54;7.55;;;5.15;;
44704;SDS011;30431;48.520;9.046;2023-04-28T02:27:22;9.07;;;4.85;;
44704;SDS011;30431;48.520;9.046;2023-04-28T02:29:49;9.82;;;4.60;;
44704;SDS011;30431;48.520;9.046;2023-04-28T02:32:20;8.82;;;5.18;;
44704;SDS011;30431;48.520;9.046;2023-04-28T02:34:53;9.57;;;5.05;;
44704;SDS011;30431;48.520;9.046;2023-04-28T02:37:21;12.70;;;4.97;;
44704;SDS011;30431;48.520;9.046;2023-04-28T02:39:49;9.25;;;4.97;;
44704;SDS011;30431;48.520;9.046;2023-04-28T02:42:16;10.13;;;5.20;;
44704;SDS011;30431;48.520;9.046;2023-04-28T02:44:46;8.90;;;5.10;;
44704;SDS011;30431;48.520;9.046;2023-04-28T02:47:15;8.02;;;5.60;;
44704;SDS011;30431;48.520;9.046;2023-04-28T02:49:42;7.95;;;5.05;;
44704;SDS011;30431;48.520;9.046;2023-04-28T02:52:09;10.52;;;4.82;;
44704;SDS011;30431;48.520;9.046;2023-04-28T02:54:36;9.18;;;5.32;;
44704;SDS011;30431;48.520;9.046;2023-04-28T02:59:31;7.40;;;4.97;;
44704;SDS011;30431;48.520;9.046;2023-04-28T03:02:00;9.50;;;4.90;;
44704;SDS011;30431;48.520;9.046;2023-04-28T03:04:28;9.00;;;4.78;;
44704;SDS011;30431;48.520;9.046;2023-04-28T03:06:55;9.73;;;5.10;;
44704;SDS011;30431;48.520;9.046;2023-04-28T03:09:24;9.15;;;4.90;;
44704;SDS011;30431;48.520;9.046;2023-04-28T03:11:51;6.97;;;5.07;;
44704;SDS011;30431;48.520;9.046;2023-04-28T03:14:18;9.45;;;5.30;;
44704;SDS011;30431;48.520;9.046;2023-04-28T03:16:47;8.00;;;5.00;;
44704;SDS011;30431;48.520;9.046;2023-04-28T03:19:15;8.90;;;5.00;;
44704;SDS011;30431;48.520;9.046;2023-04-28T03:21:44;8.63;;;4.72;;
44704;SDS011;30431;48.520;9.046;2023-04-28T03:26:39;7.15;;;4.68;;
44704;SDS011;30431;48.520;9.046;2023-04-28T03:29:07;7.80;;;5.45;;
44704;SDS011;30431;48.520;9.046;2023-04-28T03:31:34;8.73;;;5.25;;
44704;SDS011;30431;48.520;9.046;2023-04-28T03:34:03;10.57;;;5.40;;
44704;SDS011;30431;48.520;9.046;2023-04-28T03:36:31;8.90;;;5.53;;
44704;SDS011;30431;48.520;9.046;2023-04-28T03:39:06;9.07;;;4.82;;
44704;SDS011;30431;48.520;9.046;2023-04-28T03:41:35;10.95;;;5.25;;
44704;SDS011;30431;48.520;9.046;2023-04-28T03:44:25;7.18;;;4.90;;
44704;SDS011;30431;48.520;9.046;2023-04-28T03:46:55;6.93;;;4.95;;
44704;SDS011;30431;48.520;9.046;2023-04-28T03:49:25;9.30;;;5.70;;
44704;SDS011;30431;48.520;9.046;2023-04-28T03:51:52;10.32;;;6.22;;
44704;SDS011;30431;48.520;9.046;2023-04-28T03:54:19;11.88;;;5.50;;
44704;SDS011;30431;48.520;9.046;2023-04-28T03:59:15;7.68;;;5.63;;
44704;SDS011;30431;48.520;9.046;2023-04-28T04:01:45;9.15;;;5.60;;
44704;SDS011;30431;48.520;9.046;2023-04-28T04:04:14;7.78;;;5.30;;
44704;SDS011;30431;48.520;9.046;2023-04-28T04:06:43;9.75;;;5.93;;
44704;SDS011;30431;48.520;9.046;2023-04-28T04:09:11;8.60;;;5.97;;
44704;SDS011;30431;48.520;9.046;2023-04-28T04:11:40;7.95;;;5.90;;
44704;SDS011;30431;48.520;9.046;2023-04-28T04:14:07;9.85;;;5.82;;
44704;SDS011;30431;48.520;9.046;2023-04-28T04:16:35;12.65;;;5.95;;
44704;SDS011;30431;48.520;9.046;2023-04-28T04:19:03;8.40;;;6.25;;
44704;SDS011;30431;48.520;9.046;2023-04-28T04:21:41;8.35;;;5.38;;
44704;SDS011;30431;48.520;9.046;2023-04-28T04:24:08;9.13;;;5.82;;
44704;SDS011;30431;48.520;9.046;2023-04-28T04:29:17;8.68;;;5.57;;
44704;SDS011;30431;48.520;9.046;2023-04-28T04:31:44;7.57;;;5.43;;
44704;SDS011;30431;48.520;9.046;2023-04-28T04:34:11;8.63;;;5.57;;
44704;SDS011;30431;48.520;9.046;2023-04-28T04:36:40;8.90;;;5.55;;
44704;SDS011;30431;48.520;9.046;2023-04-28T04:39:11;7.88;;;4.97;;
44704;SDS011;30431;48.520;9.046;2023-04-28T04:41:39;8.10;;;5.47;;
44704;SDS011;30431;48.520;9.046;2023-04-28T04:44:30;7.95;;;5.32;;
44704;SDS011;30431;48.520;9.046;2023-04-28T04:46:59;10.75;;;5.75;;
44704;SDS011;30431;48.520;9.046;2023-04-28T04:49:34;10.35;;;5.60;;
44704;SDS011;30431;48.520;9.046;2023-04-28T04:52:02;9.68;;;5.53;;
44704;SDS011;30431;48.520;9.046;2023-04-28T04:54:29;11.45;;;5.65;;
44704;SDS011;30431;48.520;9.046;2023-04-28T04:56:58;7.47;;;5.68;;
44704;SDS011;30431;48.520;9.046;2023-04-28T04:59:48;9.73;;;5.60;;
44704;SDS011;30431;48.520;9.046;2023-04-28T05:02:19;6.72;;;5.13;;
44704;SDS011;30431;48.520;9.046;2023-04-28T05:04:48;11.68;;;5.82;;
44704;SDS011;30431;48.520;9.046;2023-04-28T05:07:15;8.73;;;5.70;;
44704;SDS011;30431;48.520;9.046;2023-04-28T05:09:42;8.20;;;5.80;;
44704;SDS011;30431;48.520;9.046;2023-04-28T05:12:10;10.43;;;6.43;;
44704;SDS011;30431;48.520;9.046;2023-04-28T05:14:42;9.25;;;5.85;;
44704;SDS011;30431;48.520;9.046;2023-04-28T05:17:11;8.35;;;5.95;;
44704;SDS011;30431;48.520;9.046;2023-04-28T05:19:40;7.80;;;5.88;;
44704;SDS011;30431;48.520;9.046;2023-04-28T05:22:13;7.25;;;5.55;;
44704;SDS011;30431;48.520;9.046;2023-04-28T05:24:40;10.70;;;6.32;;
44704;SDS011;30431;48.520;9.046;2023-04-28T05:27:08;10.43;;;6.03;;
44704;SDS011;30431;48.520;9.046;2023-04-28T05:29:38;8.68;;;5.90;;
44704;SDS011;30431;48.520;9.046;2023-04-28T05:32:05;8.10;;;5.97;;
44704;SDS011;30431;48.520;9.046;2023-04-28T05:34:34;10.82;;;6.65;;
44704;SDS011;30431;48.520;9.046;2023-04-28T05:37:06;9.88;;;6.38;;
44704;SDS011;30431;48.520;9.046;2023-04-28T05:39:36;8.27;;;5.85;;
44704;SDS011;30431;48.520;9.046;2023-04-28T05:42:04;11.68;;;6.40;;
44704;SDS011;30431;48.520;9.046;2023-04-28T05:44:33;7.65;;;5.82;;
44704;SDS011;30431;48.520;9.046;2023-04-28T05:47:02;9.18;;;6.05;;
44704;SDS011;30431;48.520;9.046;2023-04-28T05:49:30;11.15;;;5.78;;
44704;SDS011;30431;48.520;9.046;2023-04-28T05:51:57;9.48;;;6.03;;
44704;SDS011;30431;48.520;9.046;2023-04-28T05:54:24;11.60;;;6.25;;
44704;SDS011;30431;48.520;9.046;2023-04-28T05:56:54;7.97;;;5.20;;
44704;SDS011;30431;48.520;9.046;2023-04-28T05:59:22;12.60;;;5.68;;
44704;SDS011;30431;48.520;9.046;2023-04-28T06:01:51;8.43;;;5.22;;
44704;SDS011;30431;48.520;9.046;2023-04-28T06:04:21;7.45;;;5.57;;
44704;SDS011;30431;48.520;9.046;2023-04-28T06:06:49;9.02;;;5.40;;
44704;SDS011;30431;48.520;9.046;2023-04-28T06:09:16;11.35;;;5.72;;
44704;SDS011;30431;48.520;9.046;2023-04-28T06:11:44;7.10;;;5.47;;
44704;SDS011;30431;48.520;9.046;2023-04-28T06:14:11;9.57;;;5.63;;
44704;SDS011;30431;48.520;9.046;2023-04-28T06:16:37;7.13;;;5.00;;
44704;SDS011;30431;48.520;9.046;2023-04-28T06:19:07;7.88;;;5.30;;
44704;SDS011;30431;48.520;9.046;2023-04-28T06:21:34;13.00;;;5.80;;
44704;SDS011;30431;48.520;9.046;2023-04-28T06:24:04;6.60;;;5.15;;
44704;SDS011;30431;48.520;9.046;2023-04-28T06:26:40;6.85;;;4.82;;
44704;SDS011;30431;48.520;9.046;2023-04-28T06:29:08;7.50;;;4.95;;
44704;SDS011;30431;48.520;9.046;2023-04-28T06:31:34;8.05;;;5.22;;
44704;SDS011;30431;48.520;9.046;2023-04-28T06:34:01;9.55;;;5.15;;
44704;SDS011;30431;48.520;9.046;2023-04-28T06:36:28;8.68;;;5.30;;
44704;SDS011;30431;48.520;9.046;2023-04-28T06:38:56;12.05;;;5.07;;
44704;SDS011;30431;48.520;9.046;2023-04-28T06:41:24;6.32;;;4.45;;
44704;SDS011;30431;48.520;9.046;2023-04-28T06:43:54;7.15;;;5.03;;
44704;SDS011;30431;48.520;9.046;2023-04-28T06:46:28;8.77;;;5.10;;
44704;SDS011;30431;48.520;9.046;2023-04-28T06:48:55;10.90;;;5.07;;
44704;SDS011;30431;48.520;9.046;2023-04-28T06:53:50;9.05;;;4.90;;
44704;SDS011;30431;48.520;9.046;2023-04-28T06:56:20;8.88;;;5.38;;
44704;SDS011;30431;48.520;9.046;2023-04-28T06:58:47;7.40;;;4.78;;
44704;SDS011;30431;48.520;9.046;2023-04-28T07:01:14;9.35;;;5.55;;
44704;SDS011;30431;48.520;9.046;2023-04-28T07:03:47;9.30;;;5.00;;
44704;SDS011;30431;48.520;9.046;2023-04-28T07:06:14;8.75;;;5.15;;
44704;SDS011;30431;48.520;9.046;2023-04-28T07:08:44;10.60;;;5.28;;
44704;SDS011;30431;48.520;9.046;2023-04-28T07:11:13;8.60;;;5.38;;
44704;SDS011;30431;48.520;9.046;2023-04-28T07:13:41;10.52;;;6.20;;
44704;SDS011;30431;48.520;9.046;2023-04-28T07:16:17;10.00;;;6.10;;
44704;SDS011;30431;48.520;9.046;2023-04-28T07:18:44;9.90;;;6.15;;
44704;SDS011;30431;48.520;9.046;2023-04-28T07:21:13;8.57;;;5.68;;
44704;SDS011;30431;48.520;9.046;2023-04-28T07:23:40;8.82;;;5.20;;
44704;SDS011;30431;48.520;9.046;2023-04-28T07:26:08;7.28;;;5.93;;
44704;SDS011;30431;48.520;9.046;2023-04-28T07:28:35;8.00;;;5.45;;
44704;SDS011;30431;48.520;9.046;2023-04-28T07:31:02;7.50;;;5.15;;
44704;SDS011;30431;48.520;9.046;2023-04-28T07:33:29;8.52;;;5.20;;
44704;SDS011;30431;48.520;9.046;2023-04-28T07:35:59;12.32;;;7.50;;
44704;SDS011;30431;48.520;9.046;2023-04-28T07:38:26;7.40;;;5.93;;
44704;SDS011;30431;48.520;9.046;2023-04-28T07:40:53;8.15;;;5.20;;
44704;SDS011;30431;48.520;9.046;2023-04-28T07:43:22;9.95;;;5.80;;
44704;SDS011;30431;48.520;9.046;2023-04-28T07:45:49;12.55;;;5.50;;
44704;SDS011;30431;48.520;9.046;2023-04-28T07:48:16;9.35;;;6.53;;
44704;SDS011;30431;48.520;9.046;2023-04-28T07:50:46;7.55;;;5.55;;
44704;SDS011;30431;48.520;9.046;2023-04-28T07:53:13;7.63;;;5.28;;
44704;SDS011;30431;48.520;9.046;2023-04-28T07:55:45;39.95;;;27.67;;
44704;SDS011;30431;48.520;9.046;2023-04-28T07:58:12;11.68;;;8.93;;
44704;SDS011;30431;48.520;9.046;2023-04-28T08:00:39;11.20;;;8.00;;
44704;SDS011;30431;48.520;9.046;2023-04-28T08:03:09;7.78;;;6.28;;
44704;SDS011;30431;48.520;9.046;2023-04-28T08:05:37;10.48;;;6.03;;
44704;SDS011;30431;48.520;9.046;2023-04-28T08:08:05;11.43;;;6.97;;
44704;SDS011;30431;48.520;9.046;2023-04-28T08:13:00;10.88;;;6.10;;
44704;SDS011;30431;48.520;9.046;2023-04-28T08:15:27;6.72;;;5.88;;
44704;SDS011;30431;48.520;9.046;2023-04-28T08:20:21;7.63;;;5.88;;
44704;SDS011;30431;48.520;9.046;2023-04-28T08:22:50;8.85;;;6.20;;
44704;SDS011;30431;48.520;9.046;2023-04-28T08:25:19;10.02;;;6.90;;
44704;SDS011;30431;48.520;9.046;2023-04-28T08:28:11;17.48;;;10.70;;
44704;SDS011;30431;48.520;9.046;2023-04-28T08:30:44;23.77;;;13.57;;
44704;SDS011;30431;48.520;9.046;2023-04-28T08:33:11;21.98;;;12.88;;
44704;SDS011;30431;48.520;9.046;2023-04-28T08:35:40;22.17;;;12.30;;
44704;SDS011;30431;48.520;9.046;2023-04-28T08:38:10;25.40;;;14.00;;
44704;SDS011;30431;48.520;9.046;2023-04-28T08:40:39;20.67;;;10.70;;
44704;SDS011;30431;48.520;9.046;2023-04-28T08:43:08;13.32;;;9.68;;
44704;SDS011;30431;48.520;9.046;2023-04-28T08:45:42;10.82;;;6.22;;
44704;SDS011;30431;48.520;9.046;2023-04-28T08:48:17;8.68;;;5.60;;
44704;SDS011;30431;48.520;9.046;2023-04-28T08:50:48;11.73;;;7.32;;
44704;SDS011;30431;48.520;9.046;2023-04-28T08:53:23;12.07;;;7.70;;
44704;SDS011;30431;48.520;9.046;2023-04-28T08:55:54;10.02;;;6.90;;
44704;SDS011;30431;48.520;9.046;2023-04-28T08:58:24;8.80;;;6.32;;
44704;SDS011;30431;48.520;9.046;2023-04-28T09:00:52;11.15;;;6.35;;
44704;SDS011;30431;48.520;9.046;2023-04-28T09:03:25;5.95;;;3.53;;
44704;SDS011;30431;48.520;9.046;2023-04-28T09:05:52;7.13;;;4.10;;
44704;SDS011;30431;48.520;9.046;2023-04-28T09:08:22;5.15;;;4.03;;
44704;SDS011;30431;48.520;9.046;2023-04-28T09:11:08;4.30;;;3.10;;
44704;SDS011;30431;48.520;9.046;2023-04-28T09:13:40;3.20;;;2.60;;
44704;SDS011;30431;48.520;9.046;2023-04-28T09:16:07;3.25;;;2.47;;
44704;SDS011;30431;48.520;9.046;2023-04-28T09:18:34;4.25;;;2.60;;
44704;SDS011;30431;48.520;9.046;2023-04-28T09:21:04;6.05;;;3.13;;
44704;SDS011;30431;48.520;9.046;2023-04-28T09:23:33;3.78;;;2.58;;
44704;SDS011;30431;48.520;9.046;2023-04-28T09:26:05;4.05;;;2.80;;
44704;SDS011;30431;48.520;9.046;2023-04-28T09:28:37;2.83;;;2.20;;
44704;SDS011;30431;48.520;9.046;2023-04-28T09:31:04;3.92;;;2.67;;
44704;SDS011;30431;48.520;9.046;2023-04-28T09:33:31;3.50;;;2.10;;
44704;SDS011;30431;48.520;9.046;2023-04-28T09:35:59;4.38;;;2.45;;
44704;SDS011;30431;48.520;9.046;2023-04-28T09:38:28;2.85;;;2.15;;
44704;SDS011;30431;48.520;9.046;2023-04-28T09:43:31;8.90;;;4.93;;
44704;SDS011;30431;48.520;9.046;2023-04-28T09:46:04;3.70;;;2.50;;
44704;SDS011;30431;48.520;9.046;2023-04-28T09:48:34;2.75;;;2.40;;
44704;SDS011;30431;48.520;9.046;2023-04-28T09:51:04;2.58;;;2.08;;
44704;SDS011;30431;48.520;9.046;2023-04-28T09:53:33;3.45;;;2.22;;
44704;SDS011;30431;48.520;9.046;2023-04-28T09:56:03;3.05;;;1.90;;
44704;SDS011;30431;48.520;9.046;2023-04-28T09:58:31;2.38;;;1.90;;
44704;SDS011;30431;48.520;9.046;2023-04-28T10:01:01;2.60;;;1.95;;
44704;SDS011;30431;48.520;9.046;2023-04-28T10:03:32;2.28;;;1.90;;
44704;SDS011;30431;48.520;9.046;2023-04-28T10:05:59;1.60;;;1.50;;
44704;SDS011;30431;48.520;9.046;2023-04-28T10:08:27;2.17;;;1.80;;
44704;SDS011;30431;48.520;9.046;2023-04-28T10:10:57;1.88;;;1.55;;
44704;SDS011;30431;48.520;9.046;2023-04-28T10:13:28;3.15;;;1.60;;
44704;SDS011;30431;48.520;9.046;2023-04-28T10:15:55;3.67;;;1.70;;
44704;SDS011;30431;48.520;9.046;2023-04-28T10:18:24;2.10;;;1.50;;
44704;SDS011;30431;48.520;9.046;2023-04-28T10:20:56;4.32;;;2.25;;
44704;SDS011;30431;48.520;9.046;2023-04-28T10:26:18;2.20;;;1.80;;
44704;SDS011;30431;48.520;9.046;2023-04-28T10:28:52;3.65;;;2.10;;
44704;SDS011;30431;48.520;9.046;2023-04-28T10:31:20;1.83;;;1.60;;
44704;SDS011;30431;48.520;9.046;2023-04-28T10:33:48;4.22;;;1.65;;
44704;SDS011;30431;48.520;9.046;2023-04-28T10:39:18;2.42;;;1.80;;
44704;SDS011;30431;48.520;9.046;2023-04-28T10:41:47;1.58;;;1.20;;
44704;SDS011;30431;48.520;9.046;2023-04-28T10:44:40;1.50;;;1.40;;
44704;SDS011;30431;48.520;9.046;2023-04-28T10:47:07;1.50;;;1.40;;
44704;SDS011;30431;48.520;9.046;2023-04-28T11:00:42;2.13;;;1.10;;
44704;SDS011;30431;48.520;9.046;2023-04-28T11:11:34;1.20;;;1.10;;
44704;SDS011;30431;48.520;9.046;2023-04-28T11:16:47;1.10;;;1.10;;
44704;SDS011;30431;48.520;9.046;2023-04-28T11:19:29;3.90;;;1.40;;
44704;SDS011;30431;48.520;9.046;2023-04-28T11:22:20;2.05;;;1.60;;
44704;SDS011;30431;48.520;9.046;2023-04-28T11:24:58;3.03;;;2.20;;
44704;SDS011;30431;48.520;9.046;2023-04-28T11:27:31;1.83;;;1.20;;
44704;SDS011;30431;48.520;9.046;2023-04-28T11:29:59;2.40;;;1.58;;
44704;SDS011;30431;48.520;9.046;2023-04-28T11:32:31;1.48;;;1.25;;
44704;SDS011;30431;48.520;9.046;2023-04-28T11:34:59;1.02;;;1.02;;
44704;SDS011;30431;48.520;9.046;2023-04-28T11:37:27;1.30;;;1.13;;
44704;SDS011;30431;48.520;9.046;2023-04-28T11:42:22;9.60;;;4.15;;
44704;SDS011;30431;48.520;9.046;2023-04-28T11:44:52;5.13;;;3.17;;
44704;SDS011;30431;48.520;9.046;2023-04-28T11:47:32;1.58;;;1.10;;
44704;SDS011;30431;48.520;9.046;2023-04-28T11:50:04;1.10;;;1.00;;
44704;SDS011;30431;48.520;9.046;2023-04-28T11:52:34;2.65;;;1.38;;
44704;SDS011;30431;48.520;9.046;2023-04-28T11:55:05;4.10;;;1.30;;
44704;SDS011;30431;48.520;9.046;2023-04-28T12:00:13;1.75;;;1.00;;
44704;SDS011;30431;48.520;9.046;2023-04-28T12:02:48;1.27;;;1.17;;
44704;SDS011;30431;48.520;9.046;2023-04-28T12:05:20;2.33;;;1.65;;
44704;SDS011;30431;48.520;9.046;2023-04-28T12:07:48;5.90;;;4.40;;
44704;SDS011;30431;48.520;9.046;2023-04-28T12:10:16;1.90;;;1.60;;
44704;SDS011;30431;48.520;9.046;2023-04-28T12:12:44;1.17;;;1.10;;
44704;SDS011;30431;48.520;9.046;2023-04-28T12:15:15;0.90;;;0.90;;
44704;SDS011;30431;48.520;9.046;2023-04-28T12:20:50;1.10;;;1.10;;
44704;SDS011;30431;48.520;9.046;2023-04-28T12:23:27;1.05;;;1.05;;
44704;SDS011;30431;48.520;9.046;2023-04-28T12:25:57;1.10;;;1.10;;
44704;SDS011;30431;48.520;9.046;2023-04-28T12:28:35;1.40;;;1.30;;
44704;SDS011;30431;48.520;9.046;2023-04-28T12:31:08;2.83;;;1.40;;
44704;SDS011;30431;48.520;9.046;2023-04-28T12:33:38;2.72;;;1.20;;
44704;SDS011;30431;48.520;9.046;2023-04-28T12:36:05;1.38;;;1.27;;
44704;SDS011;30431;48.520;9.046;2023-04-28T12:38:35;1.20;;;1.10;;
44704;SDS011;30431;48.520;9.046;2023-04-28T12:41:03;1.25;;;1.15;;
44704;SDS011;30431;48.520;9.046;2023-04-28T12:43:38;2.13;;;1.70;;
44704;SDS011;30431;48.520;9.046;2023-04-28T12:46:06;1.02;;;0.90;;
44704;SDS011;30431;48.520;9.046;2023-04-28T12:48:34;1.17;;;1.10;;
44704;SDS011;30431;48.520;9.046;2023-04-28T12:51:07;1.40;;;1.20;;
44704;SDS011;30431;48.520;9.046;2023-04-28T12:53:37;3.17;;;1.98;;
44704;SDS011;30431;48.520;9.046;2023-04-28T12:56:06;2.33;;;1.40;;
44704;SDS011;30431;48.520;9.046;2023-04-28T12:58:34;1.30;;;1.30;;
44704;SDS011;30431;48.520;9.046;2023-04-28T13:01:01;1.65;;;1.10;;
